KRBL/RBL METAR and TAF weather

Enter ICAO airport designator
Station Type Date Time Source
KRBL METAR 2020/12/06 00:54 UTC NOAA

KRBL 060054Z AUTO 00000KT 10SM CLR 17/01 A3022 RMK AO2 SLP232 T01670006


Station Type Date Time Source
KRBL Decoded METAR 2020/12/06 00:54 UTC NOAA

RED BLUFF MUNICIPAL AIRPORT, CA, United States (KRBL) 40-09N 122-15W 104M
Dec 05, 2020 - 07:54 PM EST / 2020.12.06 0054 UTC
Wind: Calm:0
Visibility: 10 mile(s):0
Sky conditions: clear
Temperature: 62.1 F (16.7 C)
Dew Point: 33.1 F (0.6 C)
Relative Humidity: 33%
Pressure (altimeter): 30.22 in. Hg (1023 hPa)
ob: KRBL 060054Z AUTO 00000KT 10SM CLR 17/01 A3022 RMK AO2 SLP232 T01670006
cycle: 1

Station Type Date Time Source
KRBL TAF 2020/12/05 18:30 UTC NOAA

TAF KRBL 051728Z 0518/0618 VRB04KT P6SM SCT250
FM060600 32005KT P6SM BKN100

Example: see airport list